sensor_id;sensor_type;location;lat;lon;timestamp;P1;durP1;ratioP1;P2;durP2;ratioP2
61702;SDS011;47622;47.726;3.298;2023-04-03T00:00:33;42.42;;;20.52;;
61702;SDS011;47622;47.726;3.298;2023-04-03T00:02:58;45.30;;;21.25;;
61702;SDS011;47622;47.726;3.298;2023-04-03T00:05:25;43.15;;;21.20;;
61702;SDS011;47622;47.726;3.298;2023-04-03T00:07:51;46.15;;;21.90;;
61702;SDS011;47622;47.726;3.298;2023-04-03T00:10:18;44.33;;;22.25;;
61702;SDS011;47622;47.726;3.298;2023-04-03T00:12:44;42.83;;;21.35;;
61702;SDS011;47622;47.726;3.298;2023-04-03T00:15:10;56.30;;;21.35;;
61702;SDS011;47622;47.726;3.298;2023-04-03T00:17:36;47.08;;;21.75;;
61702;SDS011;47622;47.726;3.298;2023-04-03T00:20:02;44.00;;;21.77;;
61702;SDS011;47622;47.726;3.298;2023-04-03T00:22:29;45.08;;;22.50;;
61702;SDS011;47622;47.726;3.298;2023-04-03T00:24:55;43.38;;;22.33;;
61702;SDS011;47622;47.726;3.298;2023-04-03T00:27:20;45.38;;;21.42;;
61702;SDS011;47622;47.726;3.298;2023-04-03T00:29:47;42.38;;;21.67;;
61702;SDS011;47622;47.726;3.298;2023-04-03T00:32:13;44.72;;;21.77;;
61702;SDS011;47622;47.726;3.298;2023-04-03T00:34:39;44.75;;;21.75;;
61702;SDS011;47622;47.726;3.298;2023-04-03T00:37:04;44.97;;;21.63;;
61702;SDS011;47622;47.726;3.298;2023-04-03T00:39:30;41.00;;;21.77;;
61702;SDS011;47622;47.726;3.298;2023-04-03T00:41:56;44.70;;;21.60;;
61702;SDS011;47622;47.726;3.298;2023-04-03T00:45:25;48.53;;;21.35;;
61702;SDS011;47622;47.726;3.298;2023-04-03T00:47:10;46.92;;;22.15;;
61702;SDS011;47622;47.726;3.298;2023-04-03T00:49:38;45.17;;;22.15;;
61702;SDS011;47622;47.726;3.298;2023-04-03T00:52:09;40.45;;;20.65;;
61702;SDS011;47622;47.726;3.298;2023-04-03T00:54:39;40.05;;;21.13;;
61702;SDS011;47622;47.726;3.298;2023-04-03T00:57:08;39.85;;;21.40;;
61702;SDS011;47622;47.726;3.298;2023-04-03T00:59:36;44.20;;;21.30;;
61702;SDS011;47622;47.726;3.298;2023-04-03T01:02:05;45.70;;;20.80;;
61702;SDS011;47622;47.726;3.298;2023-04-03T01:04:35;41.65;;;21.65;;
61702;SDS011;47622;47.726;3.298;2023-04-03T01:07:15;49.50;;;20.25;;
61702;SDS011;47622;47.726;3.298;2023-04-03T01:09:43;41.00;;;20.60;;
61702;SDS011;47622;47.726;3.298;2023-04-03T01:12:15;43.75;;;21.35;;
61702;SDS011;47622;47.726;3.298;2023-04-03T01:14:43;44.40;;;21.52;;
61702;SDS011;47622;47.726;3.298;2023-04-03T01:23:06;37.60;;;20.27;;
61702;SDS011;47622;47.726;3.298;2023-04-03T01:28:11;41.08;;;20.63;;
61702;SDS011;47622;47.726;3.298;2023-04-03T01:31:02;46.95;;;21.58;;
61702;SDS011;47622;47.726;3.298;2023-04-03T01:33:40;43.78;;;22.13;;
61702;SDS011;47622;47.726;3.298;2023-04-03T01:36:10;43.70;;;21.98;;
61702;SDS011;47622;47.726;3.298;2023-04-03T01:38:38;40.33;;;21.55;;
61702;SDS011;47622;47.726;3.298;2023-04-03T01:41:04;41.50;;;21.73;;
61702;SDS011;47622;47.726;3.298;2023-04-03T01:43:30;44.08;;;21.73;;
61702;SDS011;47622;47.726;3.298;2023-04-03T01:45:56;38.72;;;21.25;;
61702;SDS011;47622;47.726;3.298;2023-04-03T01:48:21;37.80;;;20.60;;
61702;SDS011;47622;47.726;3.298;2023-04-03T01:50:47;36.58;;;20.25;;
61702;SDS011;47622;47.726;3.298;2023-04-03T01:53:13;41.05;;;21.55;;
61702;SDS011;47622;47.726;3.298;2023-04-03T01:55:39;36.90;;;19.38;;
61702;SDS011;47622;47.726;3.298;2023-04-03T01:58:05;43.22;;;21.48;;
61702;SDS011;47622;47.726;3.298;2023-04-03T02:00:31;43.58;;;20.27;;
61702;SDS011;47622;47.726;3.298;2023-04-03T02:02:56;40.50;;;20.48;;
61702;SDS011;47622;47.726;3.298;2023-04-03T02:05:22;40.55;;;20.20;;
61702;SDS011;47622;47.726;3.298;2023-04-03T02:07:49;38.40;;;20.60;;
61702;SDS011;47622;47.726;3.298;2023-04-03T02:10:15;41.58;;;20.90;;
61702;SDS011;47622;47.726;3.298;2023-04-03T02:12:40;42.03;;;21.52;;
61702;SDS011;47622;47.726;3.298;2023-04-03T02:15:09;42.58;;;20.70;;
61702;SDS011;47622;47.726;3.298;2023-04-03T02:17:36;39.60;;;20.83;;
61702;SDS011;47622;47.726;3.298;2023-04-03T02:20:02;40.17;;;20.90;;
61702;SDS011;47622;47.726;3.298;2023-04-03T02:22:29;39.33;;;21.45;;
61702;SDS011;47622;47.726;3.298;2023-04-03T02:24:54;42.15;;;20.88;;
61702;SDS011;47622;47.726;3.298;2023-04-03T02:27:21;42.55;;;21.67;;
61702;SDS011;47622;47.726;3.298;2023-04-03T02:29:47;39.15;;;20.65;;
61702;SDS011;47622;47.726;3.298;2023-04-03T02:32:13;43.42;;;21.80;;
61702;SDS011;47622;47.726;3.298;2023-04-03T02:34:38;39.30;;;21.55;;
61702;SDS011;47622;47.726;3.298;2023-04-03T02:37:04;41.38;;;21.63;;
61702;SDS011;47622;47.726;3.298;2023-04-03T02:39:30;41.72;;;20.05;;
61702;SDS011;47622;47.726;3.298;2023-04-03T02:41:55;40.03;;;21.33;;
61702;SDS011;47622;47.726;3.298;2023-04-03T02:44:21;38.78;;;19.80;;
61702;SDS011;47622;47.726;3.298;2023-04-03T02:46:48;38.25;;;20.92;;
61702;SDS011;47622;47.726;3.298;2023-04-03T02:49:14;41.67;;;20.95;;
61702;SDS011;47622;47.726;3.298;2023-04-03T02:51:40;36.95;;;20.02;;
61702;SDS011;47622;47.726;3.298;2023-04-03T02:54:07;44.28;;;21.63;;
61702;SDS011;47622;47.726;3.298;2023-04-03T02:56:32;39.38;;;19.55;;
61702;SDS011;47622;47.726;3.298;2023-04-03T02:58:58;41.50;;;21.20;;
61702;SDS011;47622;47.726;3.298;2023-04-03T03:01:24;41.92;;;22.33;;
61702;SDS011;47622;47.726;3.298;2023-04-03T03:03:53;42.72;;;21.85;;
61702;SDS011;47622;47.726;3.298;2023-04-03T03:06:19;41.72;;;21.30;;
61702;SDS011;47622;47.726;3.298;2023-04-03T03:08:45;40.58;;;20.35;;
61702;SDS011;47622;47.726;3.298;2023-04-03T03:11:11;38.53;;;20.98;;
61702;SDS011;47622;47.726;3.298;2023-04-03T03:13:37;45.88;;;22.70;;
61702;SDS011;47622;47.726;3.298;2023-04-03T03:16:02;39.10;;;20.98;;
61702;SDS011;47622;47.726;3.298;2023-04-03T03:18:29;43.92;;;21.85;;
61702;SDS011;47622;47.726;3.298;2023-04-03T03:20:56;40.95;;;22.05;;
61702;SDS011;47622;47.726;3.298;2023-04-03T03:23:23;34.40;;;21.67;;
61702;SDS011;47622;47.726;3.298;2023-04-03T03:25:54;43.33;;;21.23;;
61702;SDS011;47622;47.726;3.298;2023-04-03T03:28:24;45.88;;;22.35;;
61702;SDS011;47622;47.726;3.298;2023-04-03T03:30:50;41.97;;;21.02;;
61702;SDS011;47622;47.726;3.298;2023-04-03T03:33:16;41.78;;;22.33;;
61702;SDS011;47622;47.726;3.298;2023-04-03T03:35:43;44.67;;;21.00;;
61702;SDS011;47622;47.726;3.298;2023-04-03T03:38:08;47.75;;;22.80;;
61702;SDS011;47622;47.726;3.298;2023-04-03T03:40:34;40.22;;;20.63;;
61702;SDS011;47622;47.726;3.298;2023-04-03T03:43:00;45.38;;;21.13;;
61702;SDS011;47622;47.726;3.298;2023-04-03T03:45:26;47.83;;;24.10;;
61702;SDS011;47622;47.726;3.298;2023-04-03T03:47:51;43.45;;;21.08;;
61702;SDS011;47622;47.726;3.298;2023-04-03T03:50:18;42.33;;;21.52;;
61702;SDS011;47622;47.726;3.298;2023-04-03T03:52:43;41.25;;;22.15;;
61702;SDS011;47622;47.726;3.298;2023-04-03T03:55:09;45.80;;;23.17;;
61702;SDS011;47622;47.726;3.298;2023-04-03T03:57:35;40.20;;;20.75;;
61702;SDS011;47622;47.726;3.298;2023-04-03T04:00:02;39.28;;;20.38;;
61702;SDS011;47622;47.726;3.298;2023-04-03T04:02:29;44.05;;;22.17;;
61702;SDS011;47622;47.726;3.298;2023-04-03T04:04:55;42.15;;;21.45;;
61702;SDS011;47622;47.726;3.298;2023-04-03T04:07:22;36.42;;;19.75;;
61702;SDS011;47622;47.726;3.298;2023-04-03T04:09:47;47.53;;;22.73;;
61702;SDS011;47622;47.726;3.298;2023-04-03T04:12:13;37.38;;;19.70;;
61702;SDS011;47622;47.726;3.298;2023-04-03T04:14:39;38.35;;;20.40;;
61702;SDS011;47622;47.726;3.298;2023-04-03T04:17:05;41.17;;;20.63;;
61702;SDS011;47622;47.726;3.298;2023-04-03T04:19:31;37.22;;;19.08;;
61702;SDS011;47622;47.726;3.298;2023-04-03T04:21:58;41.15;;;21.42;;
61702;SDS011;47622;47.726;3.298;2023-04-03T04:24:24;39.63;;;19.67;;
61702;SDS011;47622;47.726;3.298;2023-04-03T04:26:50;38.17;;;20.75;;
61702;SDS011;47622;47.726;3.298;2023-04-03T04:29:16;38.55;;;20.58;;
61702;SDS011;47622;47.726;3.298;2023-04-03T04:31:42;36.90;;;19.00;;
61702;SDS011;47622;47.726;3.298;2023-04-03T04:34:08;34.35;;;19.15;;
61702;SDS011;47622;47.726;3.298;2023-04-03T04:36:33;37.10;;;19.65;;
61702;SDS011;47622;47.726;3.298;2023-04-03T04:39:00;40.90;;;20.70;;
61702;SDS011;47622;47.726;3.298;2023-04-03T04:41:26;39.22;;;20.88;;
61702;SDS011;47622;47.726;3.298;2023-04-03T04:43:52;35.22;;;18.85;;
61702;SDS011;47622;47.726;3.298;2023-04-03T04:46:18;35.17;;;19.25;;
61702;SDS011;47622;47.726;3.298;2023-04-03T04:48:44;39.10;;;20.70;;
61702;SDS011;47622;47.726;3.298;2023-04-03T04:51:10;37.10;;;19.23;;
61702;SDS011;47622;47.726;3.298;2023-04-03T04:53:36;38.80;;;19.77;;
61702;SDS011;47622;47.726;3.298;2023-04-03T04:56:02;41.10;;;19.55;;
61702;SDS011;47622;47.726;3.298;2023-04-03T04:58:27;40.72;;;20.33;;
61702;SDS011;47622;47.726;3.298;2023-04-03T05:01:00;40.50;;;20.70;;
61702;SDS011;47622;47.726;3.298;2023-04-03T05:03:29;35.15;;;18.15;;
61702;SDS011;47622;47.726;3.298;2023-04-03T05:05:55;38.95;;;19.88;;
61702;SDS011;47622;47.726;3.298;2023-04-03T05:08:21;39.42;;;19.98;;
61702;SDS011;47622;47.726;3.298;2023-04-03T05:10:48;35.60;;;19.25;;
61702;SDS011;47622;47.726;3.298;2023-04-03T05:13:14;38.92;;;19.75;;
61702;SDS011;47622;47.726;3.298;2023-04-03T05:15:40;40.17;;;19.98;;
61702;SDS011;47622;47.726;3.298;2023-04-03T05:18:07;35.53;;;19.38;;
61702;SDS011;47622;47.726;3.298;2023-04-03T05:20:33;36.22;;;19.45;;
61702;SDS011;47622;47.726;3.298;2023-04-03T05:22:59;36.20;;;20.52;;
61702;SDS011;47622;47.726;3.298;2023-04-03T05:25:24;38.75;;;19.92;;
61702;SDS011;47622;47.726;3.298;2023-04-03T05:27:50;41.72;;;20.42;;
61702;SDS011;47622;47.726;3.298;2023-04-03T05:30:16;37.08;;;20.02;;
61702;SDS011;47622;47.726;3.298;2023-04-03T05:32:42;40.10;;;20.15;;
61702;SDS011;47622;47.726;3.298;2023-04-03T05:35:08;34.92;;;18.92;;
61702;SDS011;47622;47.726;3.298;2023-04-03T05:37:34;31.48;;;18.38;;
61702;SDS011;47622;47.726;3.298;2023-04-03T05:40:00;36.05;;;18.08;;
61702;SDS011;47622;47.726;3.298;2023-04-03T05:42:26;31.92;;;18.90;;
61702;SDS011;47622;47.726;3.298;2023-04-03T05:44:52;31.23;;;17.70;;
61702;SDS011;47622;47.726;3.298;2023-04-03T05:47:18;29.98;;;18.33;;
61702;SDS011;47622;47.726;3.298;2023-04-03T05:49:44;33.33;;;17.73;;
61702;SDS011;47622;47.726;3.298;2023-04-03T05:54:51;33.33;;;18.92;;
61702;SDS011;47622;47.726;3.298;2023-04-03T05:57:17;32.90;;;17.48;;
61702;SDS011;47622;47.726;3.298;2023-04-03T05:59:43;32.17;;;17.45;;
61702;SDS011;47622;47.726;3.298;2023-04-03T06:02:15;31.63;;;17.48;;
61702;SDS011;47622;47.726;3.298;2023-04-03T06:04:43;28.92;;;16.77;;
61702;SDS011;47622;47.726;3.298;2023-04-03T06:07:11;30.90;;;16.10;;
61702;SDS011;47622;47.726;3.298;2023-04-03T06:09:41;30.80;;;16.13;;
61702;SDS011;47622;47.726;3.298;2023-04-03T06:12:07;28.48;;;16.10;;
61702;SDS011;47622;47.726;3.298;2023-04-03T06:14:35;27.70;;;15.30;;
61702;SDS011;47622;47.726;3.298;2023-04-03T06:17:01;28.13;;;16.00;;
61702;SDS011;47622;47.726;3.298;2023-04-03T06:19:27;25.88;;;15.05;;
61702;SDS011;47622;47.726;3.298;2023-04-03T06:21:53;29.45;;;16.35;;
61702;SDS011;47622;47.726;3.298;2023-04-03T06:24:19;27.20;;;14.88;;
61702;SDS011;47622;47.726;3.298;2023-04-03T06:26:47;27.15;;;15.45;;
61702;SDS011;47622;47.726;3.298;2023-04-03T06:29:14;29.65;;;15.52;;
61702;SDS011;47622;47.726;3.298;2023-04-03T06:31:39;28.17;;;14.90;;
61702;SDS011;47622;47.726;3.298;2023-04-03T06:34:05;24.77;;;14.10;;
61702;SDS011;47622;47.726;3.298;2023-04-03T06:36:32;26.45;;;14.23;;
61702;SDS011;47622;47.726;3.298;2023-04-03T06:38:58;24.05;;;13.73;;
61702;SDS011;47622;47.726;3.298;2023-04-03T06:41:24;25.95;;;13.70;;
61702;SDS011;47622;47.726;3.298;2023-04-03T06:43:51;26.23;;;13.50;;
61702;SDS011;47622;47.726;3.298;2023-04-03T06:46:17;26.83;;;12.75;;
61702;SDS011;47622;47.726;3.298;2023-04-03T06:48:44;22.48;;;12.60;;
61702;SDS011;47622;47.726;3.298;2023-04-03T06:51:17;26.20;;;13.90;;
61702;SDS011;47622;47.726;3.298;2023-04-03T06:53:52;22.75;;;11.35;;
61702;SDS011;47622;47.726;3.298;2023-04-03T06:56:19;24.50;;;12.02;;
61702;SDS011;47622;47.726;3.298;2023-04-03T06:58:46;26.08;;;11.80;;
61702;SDS011;47622;47.726;3.298;2023-04-03T07:01:14;27.30;;;13.18;;
61702;SDS011;47622;47.726;3.298;2023-04-03T07:03:41;23.55;;;11.75;;
61702;SDS011;47622;47.726;3.298;2023-04-03T07:06:08;23.65;;;12.35;;
61702;SDS011;47622;47.726;3.298;2023-04-03T07:08:36;26.30;;;12.48;;
61702;SDS011;47622;47.726;3.298;2023-04-03T07:11:04;22.25;;;13.15;;
61702;SDS011;47622;47.726;3.298;2023-04-03T07:13:30;25.33;;;13.50;;
61702;SDS011;47622;47.726;3.298;2023-04-03T07:15:56;24.10;;;12.95;;
61702;SDS011;47622;47.726;3.298;2023-04-03T07:18:22;27.05;;;13.23;;
61702;SDS011;47622;47.726;3.298;2023-04-03T07:20:48;26.40;;;12.13;;
61702;SDS011;47622;47.726;3.298;2023-04-03T07:23:14;23.95;;;12.55;;
61702;SDS011;47622;47.726;3.298;2023-04-03T07:25:46;26.58;;;12.20;;
61702;SDS011;47622;47.726;3.298;2023-04-03T07:28:13;21.30;;;12.05;;
61702;SDS011;47622;47.726;3.298;2023-04-03T07:33:20;24.23;;;13.23;;
61702;SDS011;47622;47.726;3.298;2023-04-03T07:35:49;19.20;;;10.77;;
61702;SDS011;47622;47.726;3.298;2023-04-03T07:38:15;19.05;;;10.55;;
61702;SDS011;47622;47.726;3.298;2023-04-03T07:40:45;19.95;;;11.65;;
61702;SDS011;47622;47.726;3.298;2023-04-03T07:43:11;16.83;;;10.55;;
61702;SDS011;47622;47.726;3.298;2023-04-03T07:45:37;20.98;;;11.68;;
61702;SDS011;47622;47.726;3.298;2023-04-03T07:48:03;20.25;;;12.45;;
61702;SDS011;47622;47.726;3.298;2023-04-03T07:50:29;20.90;;;12.10;;
61702;SDS011;47622;47.726;3.298;2023-04-03T07:52:56;19.50;;;11.05;;
61702;SDS011;47622;47.726;3.298;2023-04-03T07:55:22;20.17;;;10.88;;
61702;SDS011;47622;47.726;3.298;2023-04-03T07:57:48;17.52;;;10.55;;
61702;SDS011;47622;47.726;3.298;2023-04-03T08:00:14;19.27;;;11.25;;
61702;SDS011;47622;47.726;3.298;2023-04-03T08:02:43;16.23;;;9.95;;
61702;SDS011;47622;47.726;3.298;2023-04-03T08:05:09;18.00;;;10.77;;
61702;SDS011;47622;47.726;3.298;2023-04-03T08:07:37;15.30;;;9.82;;
61702;SDS011;47622;47.726;3.298;2023-04-03T08:10:03;14.52;;;10.05;;
61702;SDS011;47622;47.726;3.298;2023-04-03T08:12:29;14.25;;;10.10;;
61702;SDS011;47622;47.726;3.298;2023-04-03T08:14:57;16.08;;;9.90;;
61702;SDS011;47622;47.726;3.298;2023-04-03T08:17:24;14.93;;;9.43;;
61702;SDS011;47622;47.726;3.298;2023-04-03T08:19:50;16.58;;;10.43;;
61702;SDS011;47622;47.726;3.298;2023-04-03T08:22:15;15.60;;;9.43;;
61702;SDS011;47622;47.726;3.298;2023-04-03T08:24:42;16.02;;;10.20;;
61702;SDS011;47622;47.726;3.298;2023-04-03T08:27:07;13.15;;;8.20;;
61702;SDS011;47622;47.726;3.298;2023-04-03T08:29:33;14.80;;;9.00;;
61702;SDS011;47622;47.726;3.298;2023-04-03T08:31:58;14.27;;;8.88;;
61702;SDS011;47622;47.726;3.298;2023-04-03T08:34:24;11.25;;;7.82;;
61702;SDS011;47622;47.726;3.298;2023-04-03T08:36:51;11.65;;;8.02;;
61702;SDS011;47622;47.726;3.298;2023-04-03T08:39:17;13.82;;;8.25;;
61702;SDS011;47622;47.726;3.298;2023-04-03T08:41:45;13.65;;;9.00;;
61702;SDS011;47622;47.726;3.298;2023-04-03T08:44:18;11.57;;;8.25;;
61702;SDS011;47622;47.726;3.298;2023-04-03T08:52:13;13.70;;;8.07;;
61702;SDS011;47622;47.726;3.298;2023-04-03T08:57:17;14.25;;;7.55;;
61702;SDS011;47622;47.726;3.298;2023-04-03T08:59:51;10.80;;;7.30;;
61702;SDS011;47622;47.726;3.298;2023-04-03T09:02:24;9.65;;;6.72;;
61702;SDS011;47622;47.726;3.298;2023-04-03T09:04:54;9.10;;;7.35;;
61702;SDS011;47622;47.726;3.298;2023-04-03T09:07:42;10.38;;;6.80;;
61702;SDS011;47622;47.726;3.298;2023-04-03T09:10:30;11.48;;;6.82;;
61702;SDS011;47622;47.726;3.298;2023-04-03T09:13:05;12.23;;;7.40;;
61702;SDS011;47622;47.726;3.298;2023-04-03T09:15:39;10.38;;;7.30;;
61702;SDS011;47622;47.726;3.298;2023-04-03T09:18:16;10.95;;;7.05;;
61702;SDS011;47622;47.726;3.298;2023-04-03T09:20:49;9.65;;;6.68;;
61702;SDS011;47622;47.726;3.298;2023-04-03T09:23:32;9.70;;;6.30;;
61702;SDS011;47622;47.726;3.298;2023-04-03T09:26:11;11.23;;;6.55;;
61702;SDS011;47622;47.726;3.298;2023-04-03T09:28:43;11.80;;;6.90;;
61702;SDS011;47622;47.726;3.298;2023-04-03T09:31:18;8.48;;;6.05;;
61702;SDS011;47622;47.726;3.298;2023-04-03T09:33:46;10.60;;;5.90;;
61702;SDS011;47622;47.726;3.298;2023-04-03T09:36:35;8.35;;;5.90;;
61702;SDS011;47622;47.726;3.298;2023-04-03T09:39:05;6.43;;;5.18;;
61702;SDS011;47622;47.726;3.298;2023-04-03T09:41:36;8.25;;;5.68;;
61702;SDS011;47622;47.726;3.298;2023-04-03T09:44:02;7.63;;;5.22;;
61702;SDS011;47622;47.726;3.298;2023-04-03T09:46:31;6.43;;;4.88;;
61702;SDS011;47622;47.726;3.298;2023-04-03T09:49:00;7.15;;;5.07;;
61702;SDS011;47622;47.726;3.298;2023-04-03T09:51:30;9.13;;;5.75;;
61702;SDS011;47622;47.726;3.298;2023-04-03T09:53:56;6.75;;;5.40;;
61702;SDS011;47622;47.726;3.298;2023-04-03T09:56:29;7.15;;;5.07;;
61702;SDS011;47622;47.726;3.298;2023-04-03T10:01:35;6.05;;;4.60;;
61702;SDS011;47622;47.726;3.298;2023-04-03T10:04:16;5.95;;;4.50;;
61702;SDS011;47622;47.726;3.298;2023-04-03T10:06:50;8.68;;;4.88;;
61702;SDS011;47622;47.726;3.298;2023-04-03T10:09:25;6.15;;;4.40;;
61702;SDS011;47622;47.726;3.298;2023-04-03T10:12:00;7.93;;;5.25;;
61702;SDS011;47622;47.726;3.298;2023-04-03T10:14:26;8.88;;;4.78;;
61702;SDS011;47622;47.726;3.298;2023-04-03T10:19:42;5.85;;;4.45;;
61702;SDS011;47622;47.726;3.298;2023-04-03T10:22:19;6.88;;;4.20;;
61702;SDS011;47622;47.726;3.298;2023-04-03T10:33:08;5.68;;;4.30;;
61702;SDS011;47622;47.726;3.298;2023-04-03T10:38:43;6.85;;;4.15;;
61702;SDS011;47622;47.726;3.298;2023-04-03T10:47:22;6.68;;;4.15;;
61702;SDS011;47622;47.726;3.298;2023-04-03T10:53:10;5.80;;;3.70;;
61702;SDS011;47622;47.726;3.298;2023-04-03T10:58:44;6.72;;;4.18;;
61702;SDS011;47622;47.726;3.298;2023-04-03T11:01:19;5.68;;;4.35;;
61702;SDS011;47622;47.726;3.298;2023-04-03T11:03:49;6.50;;;4.55;;
61702;SDS011;47622;47.726;3.298;2023-04-03T11:06:22;5.35;;;4.10;;
61702;SDS011;47622;47.726;3.298;2023-04-03T11:08:59;5.60;;;4.60;;
61702;SDS011;47622;47.726;3.298;2023-04-03T11:11:35;5.22;;;4.22;;
61702;SDS011;47622;47.726;3.298;2023-04-03T11:16:39;7.73;;;4.83;;
61702;SDS011;47622;47.726;3.298;2023-04-03T11:21:48;9.60;;;5.57;;
61702;SDS011;47622;47.726;3.298;2023-04-03T11:24:24;6.60;;;4.72;;
61702;SDS011;47622;47.726;3.298;2023-04-03T11:26:52;7.40;;;5.38;;
61702;SDS011;47622;47.726;3.298;2023-04-03T11:29:21;7.43;;;5.28;;
61702;SDS011;47622;47.726;3.298;2023-04-03T11:36:56;5.22;;;4.72;;
61702;SDS011;47622;47.726;3.298;2023-04-03T11:47:48;8.73;;;5.55;;
61702;SDS011;47622;47.726;3.298;2023-04-03T11:50:31;7.35;;;5.25;;
61702;SDS011;47622;47.726;3.298;2023-04-03T11:53:25;6.60;;;5.35;;
61702;SDS011;47622;47.726;3.298;2023-04-03T11:59:30;6.30;;;4.95;;
61702;SDS011;47622;47.726;3.298;2023-04-03T12:02:14;9.10;;;4.95;;
61702;SDS011;47622;47.726;3.298;2023-04-03T12:04:26;10.27;;;5.20;;
61702;SDS011;47622;47.726;3.298;2023-04-03T12:06:54;8.20;;;4.88;;
61702;SDS011;47622;47.726;3.298;2023-04-03T12:11:55;7.63;;;4.63;;
61702;SDS011;47622;47.726;3.298;2023-04-03T12:14:22;6.40;;;5.03;;
61702;SDS011;47622;47.726;3.298;2023-04-03T12:16:53;6.07;;;4.75;;
61702;SDS011;47622;47.726;3.298;2023-04-03T12:22:15;7.22;;;4.70;;
61702;SDS011;47622;47.726;3.298;2023-04-03T12:24:46;10.15;;;4.65;;
61702;SDS011;47622;47.726;3.298;2023-04-03T12:30:23;5.35;;;4.28;;
61702;SDS011;47622;47.726;3.298;2023-04-03T12:41:45;4.75;;;4.18;;
61702;SDS011;47622;47.726;3.298;2023-04-03T12:46:59;5.57;;;4.55;;
61702;SDS011;47622;47.726;3.298;2023-04-03T12:52:03;5.10;;;4.18;;
61702;SDS011;47622;47.726;3.298;2023-04-03T12:54:38;6.28;;;4.25;;
61702;SDS011;47622;47.726;3.298;2023-04-03T12:57:17;6.28;;;4.68;;
61702;SDS011;47622;47.726;3.298;2023-04-03T12:59:45;5.53;;;4.15;;
61702;SDS011;47622;47.726;3.298;2023-04-03T13:02:20;8.98;;;5.10;;
61702;SDS011;47622;47.726;3.298;2023-04-03T13:04:52;5.13;;;3.97;;
61702;SDS011;47622;47.726;3.298;2023-04-03T13:07:26;4.47;;;3.63;;
61702;SDS011;47622;47.726;3.298;2023-04-03T13:09:57;4.32;;;3.45;;
61702;SDS011;47622;47.726;3.298;2023-04-03T13:12:25;4.05;;;3.40;;
61702;SDS011;47622;47.726;3.298;2023-04-03T13:14:52;5.00;;;3.97;;
61702;SDS011;47622;47.726;3.298;2023-04-03T13:17:19;4.72;;;3.42;;
61702;SDS011;47622;47.726;3.298;2023-04-03T13:19:46;5.10;;;3.55;;
61702;SDS011;47622;47.726;3.298;2023-04-03T13:24:50;4.00;;;3.60;;
61702;SDS011;47622;47.726;3.298;2023-04-03T13:27:17;4.88;;;3.42;;
61702;SDS011;47622;47.726;3.298;2023-04-03T13:29:43;5.00;;;3.60;;
61702;SDS011;47622;47.726;3.298;2023-04-03T13:32:18;4.93;;;3.75;;
61702;SDS011;47622;47.726;3.298;2023-04-03T13:34:46;4.30;;;3.38;;
61702;SDS011;47622;47.726;3.298;2023-04-03T13:37:21;4.35;;;3.90;;
61702;SDS011;47622;47.726;3.298;2023-04-03T13:39:57;5.15;;;3.53;;
61702;SDS011;47622;47.726;3.298;2023-04-03T13:42:32;5.22;;;3.10;;
61702;SDS011;47622;47.726;3.298;2023-04-03T13:47:46;3.30;;;2.83;;
61702;SDS011;47622;47.726;3.298;2023-04-03T13:50:15;4.97;;;3.55;;
61702;SDS011;47622;47.726;3.298;2023-04-03T13:55:22;6.32;;;3.33;;
61702;SDS011;47622;47.726;3.298;2023-04-03T14:00:30;4.03;;;3.00;;
61702;SDS011;47622;47.726;3.298;2023-04-03T14:03:03;4.65;;;3.40;;
61702;SDS011;47622;47.726;3.298;2023-04-03T14:05:37;4.07;;;3.15;;
61702;SDS011;47622;47.726;3.298;2023-04-03T14:08:03;4.93;;;3.22;;
61702;SDS011;47622;47.726;3.298;2023-04-03T14:10:29;4.80;;;4.00;;
61702;SDS011;47622;47.726;3.298;2023-04-03T14:12:55;5.80;;;3.83;;
61702;SDS011;47622;47.726;3.298;2023-04-03T14:15:26;4.18;;;3.45;;
61702;SDS011;47622;47.726;3.298;2023-04-03T14:17:55;4.78;;;3.80;;
61702;SDS011;47622;47.726;3.298;2023-04-03T14:20:23;5.45;;;3.72;;
61702;SDS011;47622;47.726;3.298;2023-04-03T14:22:52;5.35;;;3.80;;
61702;SDS011;47622;47.726;3.298;2023-04-03T14:25:19;4.00;;;3.50;;
61702;SDS011;47622;47.726;3.298;2023-04-03T14:27:46;4.47;;;3.83;;
61702;SDS011;47622;47.726;3.298;2023-04-03T14:30:32;5.40;;;3.38;;
61702;SDS011;47622;47.726;3.298;2023-04-03T14:32:58;5.70;;;4.00;;
61702;SDS011;47622;47.726;3.298;2023-04-03T14:35:25;4.72;;;3.53;;
61702;SDS011;47622;47.726;3.298;2023-04-03T14:37:52;4.65;;;3.08;;
61702;SDS011;47622;47.726;3.298;2023-04-03T14:40:20;4.55;;;3.10;;
61702;SDS011;47622;47.726;3.298;2023-04-03T14:42:48;4.32;;;3.30;;
61702;SDS011;47622;47.726;3.298;2023-04-03T14:45:14;4.88;;;3.10;;
61702;SDS011;47622;47.726;3.298;2023-04-03T14:47:51;5.47;;;3.50;;
61702;SDS011;47622;47.726;3.298;2023-04-03T14:50:19;4.82;;;3.90;;
61702;SDS011;47622;47.726;3.298;2023-04-03T14:52:50;3.28;;;2.80;;
61702;SDS011;47622;47.726;3.298;2023-04-03T14:55:19;5.63;;;3.17;;
61702;SDS011;47622;47.726;3.298;2023-04-03T14:57:46;5.57;;;3.10;;
61702;SDS011;47622;47.726;3.298;2023-04-03T15:02:45;3.92;;;2.95;;
61702;SDS011;47622;47.726;3.298;2023-04-03T15:05:12;3.30;;;2.85;;
61702;SDS011;47622;47.726;3.298;2023-04-03T15:07:46;5.72;;;2.90;;
61702;SDS011;47622;47.726;3.298;2023-04-03T15:10:19;4.53;;;2.95;;
61702;SDS011;47622;47.726;3.298;2023-04-03T15:12:47;3.53;;;3.03;;
61702;SDS011;47622;47.726;3.298;2023-04-03T15:15:13;5.60;;;3.30;;
61702;SDS011;47622;47.726;3.298;2023-04-03T15:17:40;5.18;;;2.80;;
61702;SDS011;47622;47.726;3.298;2023-04-03T15:20:25;5.05;;;2.78;;
61702;SDS011;47622;47.726;3.298;2023-04-03T15:22:53;4.40;;;3.17;;
61702;SDS011;47622;47.726;3.298;2023-04-03T15:25:21;5.60;;;4.05;;
61702;SDS011;47622;47.726;3.298;2023-04-03T15:27:49;4.40;;;3.25;;
61702;SDS011;47622;47.726;3.298;2023-04-03T15:30:17;5.40;;;3.20;;
61702;SDS011;47622;47.726;3.298;2023-04-03T15:32:44;4.43;;;3.20;;
61702;SDS011;47622;47.726;3.298;2023-04-03T15:35:10;5.57;;;3.08;;
61702;SDS011;47622;47.726;3.298;2023-04-03T15:37:36;5.00;;;3.50;;
61702;SDS011;47622;47.726;3.298;2023-04-03T15:40:02;4.60;;;3.30;;
61702;SDS011;47622;47.726;3.298;2023-04-03T15:42:29;7.50;;;3.42;;
61702;SDS011;47622;47.726;3.298;2023-04-03T15:44:55;4.18;;;2.88;;
61702;SDS011;47622;47.726;3.298;2023-04-03T15:47:21;5.05;;;3.30;;
61702;SDS011;47622;47.726;3.298;2023-04-03T15:49:46;4.32;;;2.85;;
61702;SDS011;47622;47.726;3.298;2023-04-03T15:52:12;6.93;;;3.00;;
61702;SDS011;47622;47.726;3.298;2023-04-03T15:54:38;3.78;;;2.95;;
61702;SDS011;47622;47.726;3.298;2023-04-03T15:57:03;3.17;;;2.80;;
61702;SDS011;47622;47.726;3.298;2023-04-03T15:59:29;5.15;;;3.45;;
61702;SDS011;47622;47.726;3.298;2023-04-03T16:01:57;5.05;;;3.28;;
61702;SDS011;47622;47.726;3.298;2023-04-03T16:04:25;5.50;;;3.38;;
61702;SDS011;47622;47.726;3.298;2023-04-03T16:06:51;6.05;;;3.70;;
61702;SDS011;47622;47.726;3.298;2023-04-03T16:09:17;5.15;;;3.40;;
61702;SDS011;47622;47.726;3.298;2023-04-03T16:11:44;3.67;;;2.47;;
61702;SDS011;47622;47.726;3.298;2023-04-03T16:14:10;4.00;;;2.70;;
61702;SDS011;47622;47.726;3.298;2023-04-03T16:16:37;5.45;;;2.90;;
61702;SDS011;47622;47.726;3.298;2023-04-03T16:19:03;3.25;;;2.88;;
61702;SDS011;47622;47.726;3.298;2023-04-03T16:21:29;3.60;;;2.90;;
61702;SDS011;47622;47.726;3.298;2023-04-03T16:23:57;5.55;;;3.13;;
61702;SDS011;47622;47.726;3.298;2023-04-03T16:26:23;3.13;;;2.40;;
61702;SDS011;47622;47.726;3.298;2023-04-03T16:28:50;5.28;;;3.35;;